createdAt,value
2019-05-06T19:36:55.496Z,7.37
2019-05-06T19:42:02.921Z,7.25
2019-05-06T19:47:08.037Z,7.22
2019-05-06T19:52:13.464Z,7.00
2019-05-06T19:57:18.659Z,6.85
2019-05-06T20:02:25.852Z,6.87
2019-05-06T20:07:37.937Z,6.78
2019-05-06T20:12:59.474Z,6.74
2019-05-06T20:17:59.808Z,6.74
2019-05-06T20:23:05.062Z,6.62
2019-05-06T20:28:13.165Z,6.54
2019-05-06T20:33:18.159Z,6.59
2019-05-06T20:38:23.905Z,6.56
2019-05-06T20:43:29.383Z,6.46
2019-05-06T20:48:34.996Z,6.49
2019-05-06T20:53:42.996Z,6.49
2019-05-06T20:58:47.763Z,6.36
2019-05-06T21:03:53.074Z,6.38
2019-05-06T21:08:58.842Z,6.37
2019-05-06T21:14:04.055Z,6.51
2019-05-06T21:19:09.064Z,6.28
2019-05-06T21:24:14.504Z,6.33
2019-05-06T21:29:20.172Z,6.36
2019-05-06T21:34:25.432Z,6.33
2019-05-06T21:39:32.587Z,6.26
2019-05-06T21:44:38.112Z,6.08
2019-05-06T21:49:44.479Z,6.00
2019-05-06T21:54:49.749Z,5.87
2019-05-06T21:59:55.242Z,5.64
2019-05-06T22:05:02.727Z,5.28
2019-05-06T22:10:08.568Z,5.38
2019-05-06T22:15:13.865Z,5.44
2019-05-06T22:20:19.020Z,5.39
2019-05-06T22:25:24.019Z,5.31
2019-05-06T22:30:29.207Z,5.12
2019-05-06T22:35:34.259Z,4.88
2019-05-06T22:40:42.423Z,5.00
2019-05-06T22:45:47.099Z,4.50
2019-05-06T22:50:53.096Z,4.54
2019-05-06T22:56:02.602Z,4.55
2019-05-06T23:01:14.655Z,4.54
2019-05-06T23:06:21.900Z,4.34
2019-05-06T23:11:27.406Z,4.38
2019-05-06T23:16:34.862Z,4.28
2019-05-06T23:21:39.312Z,4.17
2019-05-06T23:26:44.883Z,4.11
2019-05-06T23:31:52.127Z,4.00
2019-05-06T23:37:28.510Z,4.01
2019-05-06T23:43:12.524Z,3.86
2019-05-06T23:48:54.089Z,3.74
2019-05-06T23:54:35.488Z,3.37
2019-05-06T23:59:42.973Z,3.63
